sensor_id;sensor_type;location;lat;lon;timestamp;temperature;humidity
8214;DHT22;4148;47.974;7.824;2023-04-16T00:00:54;9.10;99.90
8214;DHT22;4148;47.974;7.824;2023-04-16T00:03:22;9.00;99.90
8214;DHT22;4148;47.974;7.824;2023-04-16T00:05:50;9.10;99.90
8214;DHT22;4148;47.974;7.824;2023-04-16T00:08:21;9.10;99.90
8214;DHT22;4148;47.974;7.824;2023-04-16T00:10:51;9.10;99.90
8214;DHT22;4148;47.974;7.824;2023-04-16T00:13:19;9.10;99.90
8214;DHT22;4148;47.974;7.824;2023-04-16T00:15:49;9.00;99.90
8214;DHT22;4148;47.974;7.824;2023-04-16T00:18:17;9.10;99.90
8214;DHT22;4148;47.974;7.824;2023-04-16T00:20:47;9.10;99.90
8214;DHT22;4148;47.974;7.824;2023-04-16T00:23:14;9.20;99.90
8214;DHT22;4148;47.974;7.824;2023-04-16T00:25:42;9.20;99.90
8214;DHT22;4148;47.974;7.824;2023-04-16T00:28:10;9.10;99.90
8214;DHT22;4148;47.974;7.824;2023-04-16T00:30:38;9.10;99.90
8214;DHT22;4148;47.974;7.824;2023-04-16T00:33:07;9.20;99.90
8214;DHT22;4148;47.974;7.824;2023-04-16T00:35:35;9.20;99.90
8214;DHT22;4148;47.974;7.824;2023-04-16T00:38:02;9.10;99.90
8214;DHT22;4148;47.974;7.824;2023-04-16T00:40:31;9.00;99.90
8214;DHT22;4148;47.974;7.824;2023-04-16T00:42:58;9.00;99.90
8214;DHT22;4148;47.974;7.824;2023-04-16T00:45:26;9.10;99.90
8214;DHT22;4148;47.974;7.824;2023-04-16T00:47:54;9.10;99.90
8214;DHT22;4148;47.974;7.824;2023-04-16T00:50:26;9.10;99.90
8214;DHT22;4148;47.974;7.824;2023-04-16T00:52:54;9.00;99.90
8214;DHT22;4148;47.974;7.824;2023-04-16T00:55:23;9.20;99.90
8214;DHT22;4148;47.974;7.824;2023-04-16T00:57:51;9.10;99.90
8214;DHT22;4148;47.974;7.824;2023-04-16T01:00:19;9.20;99.90
8214;DHT22;4148;47.974;7.824;2023-04-16T01:02:47;9.30;99.90
8214;DHT22;4148;47.974;7.824;2023-04-16T01:05:15;9.10;99.90
8214;DHT22;4148;47.974;7.824;2023-04-16T01:07:45;9.00;99.90
8214;DHT22;4148;47.974;7.824;2023-04-16T01:10:12;8.90;99.90
8214;DHT22;4148;47.974;7.824;2023-04-16T01:12:40;8.80;99.90
8214;DHT22;4148;47.974;7.824;2023-04-16T01:15:09;8.90;99.90
8214;DHT22;4148;47.974;7.824;2023-04-16T01:17:37;8.80;99.90
8214;DHT22;4148;47.974;7.824;2023-04-16T01:20:05;8.80;99.90
8214;DHT22;4148;47.974;7.824;2023-04-16T01:22:34;8.80;99.90
8214;DHT22;4148;47.974;7.824;2023-04-16T01:25:02;8.90;99.90
8214;DHT22;4148;47.974;7.824;2023-04-16T01:27:30;8.90;99.90
8214;DHT22;4148;47.974;7.824;2023-04-16T01:29:59;8.90;99.90
8214;DHT22;4148;47.974;7.824;2023-04-16T01:32:26;8.80;99.90
8214;DHT22;4148;47.974;7.824;2023-04-16T01:34:54;8.80;99.90
8214;DHT22;4148;47.974;7.824;2023-04-16T01:37:22;8.80;99.90
8214;DHT22;4148;47.974;7.824;2023-04-16T01:39:51;8.80;99.90
8214;DHT22;4148;47.974;7.824;2023-04-16T01:42:19;8.80;99.90
8214;DHT22;4148;47.974;7.824;2023-04-16T01:44:47;8.80;99.90
8214;DHT22;4148;47.974;7.824;2023-04-16T01:47:14;8.90;99.90
8214;DHT22;4148;47.974;7.824;2023-04-16T01:49:42;8.90;99.90
8214;DHT22;4148;47.974;7.824;2023-04-16T01:52:11;8.90;99.90
8214;DHT22;4148;47.974;7.824;2023-04-16T01:54:39;8.90;99.90
8214;DHT22;4148;47.974;7.824;2023-04-16T01:57:08;8.90;99.90
8214;DHT22;4148;47.974;7.824;2023-04-16T01:59:36;8.90;99.90
8214;DHT22;4148;47.974;7.824;2023-04-16T02:02:07;8.90;99.90
8214;DHT22;4148;47.974;7.824;2023-04-16T02:04:37;8.90;99.90
8214;DHT22;4148;47.974;7.824;2023-04-16T02:07:05;8.90;99.90
8214;DHT22;4148;47.974;7.824;2023-04-16T02:09:33;8.80;99.90
8214;DHT22;4148;47.974;7.824;2023-04-16T02:12:01;8.90;99.90
8214;DHT22;4148;47.974;7.824;2023-04-16T02:14:31;8.90;99.90
8214;DHT22;4148;47.974;7.824;2023-04-16T02:16:59;8.90;99.90
8214;DHT22;4148;47.974;7.824;2023-04-16T02:19:27;8.90;99.90
8214;DHT22;4148;47.974;7.824;2023-04-16T02:21:55;8.90;99.90
8214;DHT22;4148;47.974;7.824;2023-04-16T02:24:23;8.90;99.90
8214;DHT22;4148;47.974;7.824;2023-04-16T02:26:50;8.70;99.90
8214;DHT22;4148;47.974;7.824;2023-04-16T02:29:18;8.80;99.90
8214;DHT22;4148;47.974;7.824;2023-04-16T02:31:48;8.80;99.90
8214;DHT22;4148;47.974;7.824;2023-04-16T02:34:16;8.80;99.90
8214;DHT22;4148;47.974;7.824;2023-04-16T02:36:44;8.90;99.90
8214;DHT22;4148;47.974;7.824;2023-04-16T02:39:11;8.80;99.90
8214;DHT22;4148;47.974;7.824;2023-04-16T02:41:39;8.80;99.90
8214;DHT22;4148;47.974;7.824;2023-04-16T02:44:07;8.70;99.90
8214;DHT22;4148;47.974;7.824;2023-04-16T02:46:35;8.70;99.90
8214;DHT22;4148;47.974;7.824;2023-04-16T02:49:04;8.70;99.90
8214;DHT22;4148;47.974;7.824;2023-04-16T02:51:32;8.70;99.90
8214;DHT22;4148;47.974;7.824;2023-04-16T02:53:59;8.70;99.90
8214;DHT22;4148;47.974;7.824;2023-04-16T02:56:28;8.70;99.90
8214;DHT22;4148;47.974;7.824;2023-04-16T02:58:56;8.70;99.90
8214;DHT22;4148;47.974;7.824;2023-04-16T03:01:24;8.70;99.90
8214;DHT22;4148;47.974;7.824;2023-04-16T03:03:52;8.70;99.90
8214;DHT22;4148;47.974;7.824;2023-04-16T03:06:21;8.70;99.90
8214;DHT22;4148;47.974;7.824;2023-04-16T03:08:49;8.80;99.90
8214;DHT22;4148;47.974;7.824;2023-04-16T03:11:17;8.80;99.90
8214;DHT22;4148;47.974;7.824;2023-04-16T03:13:45;8.90;99.90
8214;DHT22;4148;47.974;7.824;2023-04-16T03:16:13;8.90;99.90
8214;DHT22;4148;47.974;7.824;2023-04-16T03:18:41;8.80;99.90
8214;DHT22;4148;47.974;7.824;2023-04-16T03:21:09;8.80;99.90
8214;DHT22;4148;47.974;7.824;2023-04-16T03:23:38;8.80;99.90
8214;DHT22;4148;47.974;7.824;2023-04-16T03:26:06;8.90;99.90
8214;DHT22;4148;47.974;7.824;2023-04-16T03:28:34;8.90;99.90
8214;DHT22;4148;47.974;7.824;2023-04-16T03:31:02;9.00;99.90
8214;DHT22;4148;47.974;7.824;2023-04-16T03:33:30;8.90;99.90
8214;DHT22;4148;47.974;7.824;2023-04-16T03:35:58;8.90;99.90
8214;DHT22;4148;47.974;7.824;2023-04-16T03:38:25;8.90;99.90
8214;DHT22;4148;47.974;7.824;2023-04-16T03:40:55;9.00;99.90
8214;DHT22;4148;47.974;7.824;2023-04-16T03:43:22;8.90;99.90
8214;DHT22;4148;47.974;7.824;2023-04-16T03:45:50;8.90;99.90
8214;DHT22;4148;47.974;7.824;2023-04-16T03:48:18;8.90;99.90
8214;DHT22;4148;47.974;7.824;2023-04-16T03:50:46;8.80;99.90
8214;DHT22;4148;47.974;7.824;2023-04-16T03:53:14;8.80;99.90
8214;DHT22;4148;47.974;7.824;2023-04-16T03:55:42;8.80;99.90
8214;DHT22;4148;47.974;7.824;2023-04-16T03:58:11;8.80;99.90
8214;DHT22;4148;47.974;7.824;2023-04-16T04:00:40;8.70;99.90
8214;DHT22;4148;47.974;7.824;2023-04-16T04:03:08;8.80;99.90
8214;DHT22;4148;47.974;7.824;2023-04-16T04:08:05;8.70;99.90
8214;DHT22;4148;47.974;7.824;2023-04-16T04:10:33;8.70;99.90
8214;DHT22;4148;47.974;7.824;2023-04-16T04:13:02;8.70;99.90
8214;DHT22;4148;47.974;7.824;2023-04-16T04:15:31;8.70;99.90
8214;DHT22;4148;47.974;7.824;2023-04-16T04:17:59;8.70;99.90
8214;DHT22;4148;47.974;7.824;2023-04-16T04:20:27;8.70;99.90
8214;DHT22;4148;47.974;7.824;2023-04-16T04:22:55;8.70;99.90
8214;DHT22;4148;47.974;7.824;2023-04-16T04:25:23;8.70;99.90
8214;DHT22;4148;47.974;7.824;2023-04-16T04:27:51;8.80;99.90
8214;DHT22;4148;47.974;7.824;2023-04-16T04:30:19;8.70;99.90
8214;DHT22;4148;47.974;7.824;2023-04-16T04:32:48;8.70;99.90
8214;DHT22;4148;47.974;7.824;2023-04-16T04:35:16;8.60;99.90
8214;DHT22;4148;47.974;7.824;2023-04-16T04:37:44;8.60;99.90
8214;DHT22;4148;47.974;7.824;2023-04-16T04:40:12;8.80;99.90
8214;DHT22;4148;47.974;7.824;2023-04-16T04:42:39;8.80;99.90
8214;DHT22;4148;47.974;7.824;2023-04-16T04:45:09;8.80;99.90
8214;DHT22;4148;47.974;7.824;2023-04-16T04:47:37;8.70;99.90
8214;DHT22;4148;47.974;7.824;2023-04-16T04:50:07;8.80;99.90
8214;DHT22;4148;47.974;7.824;2023-04-16T04:52:35;8.80;99.90
8214;DHT22;4148;47.974;7.824;2023-04-16T04:55:03;8.90;99.90
8214;DHT22;4148;47.974;7.824;2023-04-16T04:57:31;8.80;99.90
8214;DHT22;4148;47.974;7.824;2023-04-16T04:59:59;8.80;99.90
8214;DHT22;4148;47.974;7.824;2023-04-16T05:02:29;8.80;99.90
8214;DHT22;4148;47.974;7.824;2023-04-16T05:04:57;8.80;99.90
8214;DHT22;4148;47.974;7.824;2023-04-16T05:07:26;8.80;99.90
8214;DHT22;4148;47.974;7.824;2023-04-16T05:09:54;8.80;99.90
8214;DHT22;4148;47.974;7.824;2023-04-16T05:12:22;8.70;99.90
8214;DHT22;4148;47.974;7.824;2023-04-16T05:14:49;8.80;99.90
8214;DHT22;4148;47.974;7.824;2023-04-16T05:17:17;8.80;99.90
8214;DHT22;4148;47.974;7.824;2023-04-16T05:19:45;8.90;99.90
8214;DHT22;4148;47.974;7.824;2023-04-16T05:22:13;8.80;99.90
8214;DHT22;4148;47.974;7.824;2023-04-16T05:24:45;9.00;99.90
8214;DHT22;4148;47.974;7.824;2023-04-16T05:27:13;9.00;99.90
8214;DHT22;4148;47.974;7.824;2023-04-16T05:29:41;8.90;99.90
8214;DHT22;4148;47.974;7.824;2023-04-16T05:32:09;8.90;99.90
8214;DHT22;4148;47.974;7.824;2023-04-16T05:34:37;8.90;99.90
8214;DHT22;4148;47.974;7.824;2023-04-16T05:37:04;8.80;99.90
8214;DHT22;4148;47.974;7.824;2023-04-16T05:39:32;8.80;99.90
8214;DHT22;4148;47.974;7.824;2023-04-16T05:42:02;8.80;99.90
8214;DHT22;4148;47.974;7.824;2023-04-16T05:44:29;8.80;99.90
8214;DHT22;4148;47.974;7.824;2023-04-16T05:46:57;8.80;99.90
8214;DHT22;4148;47.974;7.824;2023-04-16T05:49:25;8.90;99.90
8214;DHT22;4148;47.974;7.824;2023-04-16T05:51:53;8.90;99.90
8214;DHT22;4148;47.974;7.824;2023-04-16T05:54:21;8.80;99.90
8214;DHT22;4148;47.974;7.824;2023-04-16T05:56:48;8.90;99.90
8214;DHT22;4148;47.974;7.824;2023-04-16T05:59:18;8.90;99.90
8214;DHT22;4148;47.974;7.824;2023-04-16T06:01:46;8.80;99.90
8214;DHT22;4148;47.974;7.824;2023-04-16T06:04:13;8.80;99.90
8214;DHT22;4148;47.974;7.824;2023-04-16T06:06:42;8.80;99.90
8214;DHT22;4148;47.974;7.824;2023-04-16T06:09:09;8.80;99.90
8214;DHT22;4148;47.974;7.824;2023-04-16T06:11:37;8.80;99.90
8214;DHT22;4148;47.974;7.824;2023-04-16T06:14:05;8.80;99.90
8214;DHT22;4148;47.974;7.824;2023-04-16T06:16:35;8.90;99.90
8214;DHT22;4148;47.974;7.824;2023-04-16T06:19:02;9.10;99.90
8214;DHT22;4148;47.974;7.824;2023-04-16T06:21:30;9.00;99.90
8214;DHT22;4148;47.974;7.824;2023-04-16T06:23:59;9.00;99.90
8214;DHT22;4148;47.974;7.824;2023-04-16T06:26:27;9.00;99.90
8214;DHT22;4148;47.974;7.824;2023-04-16T06:28:54;9.00;99.90
8214;DHT22;4148;47.974;7.824;2023-04-16T06:31:22;9.10;99.90
8214;DHT22;4148;47.974;7.824;2023-04-16T06:33:52;9.10;99.90
8214;DHT22;4148;47.974;7.824;2023-04-16T06:36:20;9.10;99.90
8214;DHT22;4148;47.974;7.824;2023-04-16T06:38:48;9.10;99.90
8214;DHT22;4148;47.974;7.824;2023-04-16T06:41:16;9.10;99.90
8214;DHT22;4148;47.974;7.824;2023-04-16T06:43:44;9.10;99.90
8214;DHT22;4148;47.974;7.824;2023-04-16T06:46:11;9.10;99.90
8214;DHT22;4148;47.974;7.824;2023-04-16T06:48:39;9.10;99.90
8214;DHT22;4148;47.974;7.824;2023-04-16T06:51:08;9.10;99.90
8214;DHT22;4148;47.974;7.824;2023-04-16T06:53:37;9.10;99.90
8214;DHT22;4148;47.974;7.824;2023-04-16T06:56:05;9.10;99.90
8214;DHT22;4148;47.974;7.824;2023-04-16T06:58:33;9.10;99.90
8214;DHT22;4148;47.974;7.824;2023-04-16T07:01:02;9.20;99.90
8214;DHT22;4148;47.974;7.824;2023-04-16T07:03:30;9.10;99.90
8214;DHT22;4148;47.974;7.824;2023-04-16T07:05:58;9.10;99.90
8214;DHT22;4148;47.974;7.824;2023-04-16T07:08:27;9.10;99.90
8214;DHT22;4148;47.974;7.824;2023-04-16T07:10:55;9.00;99.90
8214;DHT22;4148;47.974;7.824;2023-04-16T07:13:24;9.00;99.90
8214;DHT22;4148;47.974;7.824;2023-04-16T07:15:52;9.10;99.90
8214;DHT22;4148;47.974;7.824;2023-04-16T07:18:19;9.00;99.90
8214;DHT22;4148;47.974;7.824;2023-04-16T07:20:47;9.10;99.90
8214;DHT22;4148;47.974;7.824;2023-04-16T07:23:15;9.00;99.90
8214;DHT22;4148;47.974;7.824;2023-04-16T07:25:44;9.00;99.90
8214;DHT22;4148;47.974;7.824;2023-04-16T07:28:12;8.90;99.90
8214;DHT22;4148;47.974;7.824;2023-04-16T07:30:42;8.90;99.90
8214;DHT22;4148;47.974;7.824;2023-04-16T07:33:10;8.90;99.90
8214;DHT22;4148;47.974;7.824;2023-04-16T07:35:38;8.90;99.90
8214;DHT22;4148;47.974;7.824;2023-04-16T07:38:05;8.90;99.90
8214;DHT22;4148;47.974;7.824;2023-04-16T07:40:35;9.00;99.90
8214;DHT22;4148;47.974;7.824;2023-04-16T07:43:04;8.90;99.90
8214;DHT22;4148;47.974;7.824;2023-04-16T07:45:32;8.90;99.90
8214;DHT22;4148;47.974;7.824;2023-04-16T07:48:00;8.90;99.90
8214;DHT22;4148;47.974;7.824;2023-04-16T07:50:28;8.90;99.90
8214;DHT22;4148;47.974;7.824;2023-04-16T07:52:55;8.90;99.90
8214;DHT22;4148;47.974;7.824;2023-04-16T07:55:23;8.90;99.90
8214;DHT22;4148;47.974;7.824;2023-04-16T07:57:51;8.90;99.90
8214;DHT22;4148;47.974;7.824;2023-04-16T08:00:20;9.00;99.90
8214;DHT22;4148;47.974;7.824;2023-04-16T08:02:48;9.10;99.90
8214;DHT22;4148;47.974;7.824;2023-04-16T08:05:17;9.00;99.90
8214;DHT22;4148;47.974;7.824;2023-04-16T08:07:45;9.00;99.90
8214;DHT22;4148;47.974;7.824;2023-04-16T08:10:12;9.00;99.90
8214;DHT22;4148;47.974;7.824;2023-04-16T08:12:41;9.00;99.90
8214;DHT22;4148;47.974;7.824;2023-04-16T08:15:09;8.90;99.90
8214;DHT22;4148;47.974;7.824;2023-04-16T08:17:38;9.00;99.90
8214;DHT22;4148;47.974;7.824;2023-04-16T08:20:07;9.00;99.90
8214;DHT22;4148;47.974;7.824;2023-04-16T08:22:39;9.00;99.90
8214;DHT22;4148;47.974;7.824;2023-04-16T08:25:08;9.00;99.90
8214;DHT22;4148;47.974;7.824;2023-04-16T08:27:36;8.90;99.90
8214;DHT22;4148;47.974;7.824;2023-04-16T08:30:05;9.00;99.90
8214;DHT22;4148;47.974;7.824;2023-04-16T08:32:33;9.00;99.90
8214;DHT22;4148;47.974;7.824;2023-04-16T08:35:02;9.00;99.90
8214;DHT22;4148;47.974;7.824;2023-04-16T08:37:30;9.00;99.90
8214;DHT22;4148;47.974;7.824;2023-04-16T08:39:58;9.00;99.90
8214;DHT22;4148;47.974;7.824;2023-04-16T08:42:30;9.00;99.90
8214;DHT22;4148;47.974;7.824;2023-04-16T08:45:05;9.00;99.90
8214;DHT22;4148;47.974;7.824;2023-04-16T08:47:34;9.10;99.90
8214;DHT22;4148;47.974;7.824;2023-04-16T08:50:05;9.10;99.90
8214;DHT22;4148;47.974;7.824;2023-04-16T08:52:36;9.20;99.90
8214;DHT22;4148;47.974;7.824;2023-04-16T08:55:08;9.20;99.90
8214;DHT22;4148;47.974;7.824;2023-04-16T08:57:43;9.20;99.90
8214;DHT22;4148;47.974;7.824;2023-04-16T09:00:11;9.20;99.90
8214;DHT22;4148;47.974;7.824;2023-04-16T09:02:40;9.20;99.90
8214;DHT22;4148;47.974;7.824;2023-04-16T09:05:14;9.10;99.90
8214;DHT22;4148;47.974;7.824;2023-04-16T09:07:44;9.10;99.90
8214;DHT22;4148;47.974;7.824;2023-04-16T09:10:13;9.10;99.90
8214;DHT22;4148;47.974;7.824;2023-04-16T09:12:42;9.10;99.90
8214;DHT22;4148;47.974;7.824;2023-04-16T09:15:11;9.10;99.90
8214;DHT22;4148;47.974;7.824;2023-04-16T09:17:39;9.10;99.90
8214;DHT22;4148;47.974;7.824;2023-04-16T09:20:09;9.10;99.90
8214;DHT22;4148;47.974;7.824;2023-04-16T09:22:38;9.10;99.90
8214;DHT22;4148;47.974;7.824;2023-04-16T09:25:07;9.10;99.90
8214;DHT22;4148;47.974;7.824;2023-04-16T09:27:35;9.10;99.90
8214;DHT22;4148;47.974;7.824;2023-04-16T09:30:17;9.10;99.90
8214;DHT22;4148;47.974;7.824;2023-04-16T09:32:47;9.10;99.90
8214;DHT22;4148;47.974;7.824;2023-04-16T09:35:17;9.10;99.90
8214;DHT22;4148;47.974;7.824;2023-04-16T09:37:54;9.10;99.90
8214;DHT22;4148;47.974;7.824;2023-04-16T09:40:24;9.10;99.90
8214;DHT22;4148;47.974;7.824;2023-04-16T09:42:56;9.10;99.90
8214;DHT22;4148;47.974;7.824;2023-04-16T09:45:24;9.10;99.90
8214;DHT22;4148;47.974;7.824;2023-04-16T09:47:51;9.20;99.90
8214;DHT22;4148;47.974;7.824;2023-04-16T09:50:21;9.20;99.90
8214;DHT22;4148;47.974;7.824;2023-04-16T09:52:52;9.10;99.90
8214;DHT22;4148;47.974;7.824;2023-04-16T09:55:22;9.00;99.90
8214;DHT22;4148;47.974;7.824;2023-04-16T09:57:57;9.00;99.90
8214;DHT22;4148;47.974;7.824;2023-04-16T10:00:25;9.00;99.90
8214;DHT22;4148;47.974;7.824;2023-04-16T10:03:02;9.00;99.90
8214;DHT22;4148;47.974;7.824;2023-04-16T10:05:32;9.10;99.90
8214;DHT22;4148;47.974;7.824;2023-04-16T10:08:00;9.10;99.90
8214;DHT22;4148;47.974;7.824;2023-04-16T10:10:28;9.10;99.90
8214;DHT22;4148;47.974;7.824;2023-04-16T10:12:56;9.20;99.90
8214;DHT22;4148;47.974;7.824;2023-04-16T10:15:24;9.30;99.90
8214;DHT22;4148;47.974;7.824;2023-04-16T10:17:52;9.30;99.90
8214;DHT22;4148;47.974;7.824;2023-04-16T10:20:22;9.20;99.90
8214;DHT22;4148;47.974;7.824;2023-04-16T10:22:53;9.20;99.90
8214;DHT22;4148;47.974;7.824;2023-04-16T10:25:22;9.10;99.90
8214;DHT22;4148;47.974;7.824;2023-04-16T10:27:50;9.20;99.90
8214;DHT22;4148;47.974;7.824;2023-04-16T10:30:18;9.20;99.90
8214;DHT22;4148;47.974;7.824;2023-04-16T10:32:48;9.20;99.90
8214;DHT22;4148;47.974;7.824;2023-04-16T10:35:18;9.10;99.90
8214;DHT22;4148;47.974;7.824;2023-04-16T10:37:46;9.10;99.90
8214;DHT22;4148;47.974;7.824;2023-04-16T10:40:23;9.10;99.90
8214;DHT22;4148;47.974;7.824;2023-04-16T10:42:56;9.10;99.90
8214;DHT22;4148;47.974;7.824;2023-04-16T10:45:36;9.10;99.90
8214;DHT22;4148;47.974;7.824;2023-04-16T10:48:05;9.10;99.90
8214;DHT22;4148;47.974;7.824;2023-04-16T10:50:34;9.10;99.90
8214;DHT22;4148;47.974;7.824;2023-04-16T10:53:16;9.20;99.90
8214;DHT22;4148;47.974;7.824;2023-04-16T10:55:57;9.30;99.90
8214;DHT22;4148;47.974;7.824;2023-04-16T10:58:29;9.30;99.90
8214;DHT22;4148;47.974;7.824;2023-04-16T11:00:58;9.30;99.90
8214;DHT22;4148;47.974;7.824;2023-04-16T11:03:29;9.30;99.90
8214;DHT22;4148;47.974;7.824;2023-04-16T11:06:11;9.20;99.90
8214;DHT22;4148;47.974;7.824;2023-04-16T11:08:40;9.20;99.90
8214;DHT22;4148;47.974;7.824;2023-04-16T11:11:21;9.20;99.90
8214;DHT22;4148;47.974;7.824;2023-04-16T11:13:54;9.20;99.90
8214;DHT22;4148;47.974;7.824;2023-04-16T11:16:23;9.20;99.90
8214;DHT22;4148;47.974;7.824;2023-04-16T11:18:53;9.30;99.90
8214;DHT22;4148;47.974;7.824;2023-04-16T11:21:23;9.30;99.90
8214;DHT22;4148;47.974;7.824;2023-04-16T11:23:52;9.40;99.90
8214;DHT22;4148;47.974;7.824;2023-04-16T11:26:24;9.40;99.90
8214;DHT22;4148;47.974;7.824;2023-04-16T11:28:53;9.50;99.90
8214;DHT22;4148;47.974;7.824;2023-04-16T11:31:22;9.50;99.90
8214;DHT22;4148;47.974;7.824;2023-04-16T11:33:54;9.60;99.90
8214;DHT22;4148;47.974;7.824;2023-04-16T11:36:22;9.50;99.90
8214;DHT22;4148;47.974;7.824;2023-04-16T11:39:00;9.50;99.90
8214;DHT22;4148;47.974;7.824;2023-04-16T11:41:30;9.60;99.90
8214;DHT22;4148;47.974;7.824;2023-04-16T11:43:57;9.60;99.90
8214;DHT22;4148;47.974;7.824;2023-04-16T11:46:37;9.60;99.90
8214;DHT22;4148;47.974;7.824;2023-04-16T11:49:06;9.70;99.90
8214;DHT22;4148;47.974;7.824;2023-04-16T11:51:38;9.70;99.90
8214;DHT22;4148;47.974;7.824;2023-04-16T11:54:06;9.80;99.90
8214;DHT22;4148;47.974;7.824;2023-04-16T11:56:44;9.80;99.90
8214;DHT22;4148;47.974;7.824;2023-04-16T11:59:14;9.80;99.90
8214;DHT22;4148;47.974;7.824;2023-04-16T12:01:46;9.90;99.90
8214;DHT22;4148;47.974;7.824;2023-04-16T12:04:15;9.90;99.90
8214;DHT22;4148;47.974;7.824;2023-04-16T12:07:07;9.90;99.90
8214;DHT22;4148;47.974;7.824;2023-04-16T12:09:36;10.00;99.90
8214;DHT22;4148;47.974;7.824;2023-04-16T12:12:24;10.00;99.90
8214;DHT22;4148;47.974;7.824;2023-04-16T12:14:53;10.00;99.90
8214;DHT22;4148;47.974;7.824;2023-04-16T12:17:22;10.10;99.90
8214;DHT22;4148;47.974;7.824;2023-04-16T12:19:51;10.10;99.90
8214;DHT22;4148;47.974;7.824;2023-04-16T12:22:26;10.10;99.90
8214;DHT22;4148;47.974;7.824;2023-04-16T12:24:56;10.10;99.90
8214;DHT22;4148;47.974;7.824;2023-04-16T12:27:40;10.20;99.90
8214;DHT22;4148;47.974;7.824;2023-04-16T12:30:09;10.20;99.90
8214;DHT22;4148;47.974;7.824;2023-04-16T12:32:37;10.10;99.90
8214;DHT22;4148;47.974;7.824;2023-04-16T12:35:05;10.10;99.90
8214;DHT22;4148;47.974;7.824;2023-04-16T12:37:34;10.10;99.90
8214;DHT22;4148;47.974;7.824;2023-04-16T12:40:03;10.10;99.90
8214;DHT22;4148;47.974;7.824;2023-04-16T12:42:33;10.20;99.90
8214;DHT22;4148;47.974;7.824;2023-04-16T12:45:02;10.20;99.90
8214;DHT22;4148;47.974;7.824;2023-04-16T12:47:31;10.10;99.90
8214;DHT22;4148;47.974;7.824;2023-04-16T12:49:59;10.10;99.90
8214;DHT22;4148;47.974;7.824;2023-04-16T12:52:27;10.10;99.90
8214;DHT22;4148;47.974;7.824;2023-04-16T12:54:55;10.10;99.90
8214;DHT22;4148;47.974;7.824;2023-04-16T12:57:23;10.00;99.90
8214;DHT22;4148;47.974;7.824;2023-04-16T12:59:55;10.10;99.90
8214;DHT22;4148;47.974;7.824;2023-04-16T13:02:24;10.10;99.90
8214;DHT22;4148;47.974;7.824;2023-04-16T13:04:52;10.00;99.90
8214;DHT22;4148;47.974;7.824;2023-04-16T13:07:20;10.00;99.90
8214;DHT22;4148;47.974;7.824;2023-04-16T13:09:49;10.00;99.90
8214;DHT22;4148;47.974;7.824;2023-04-16T13:12:17;10.00;99.90
8214;DHT22;4148;47.974;7.824;2023-04-16T13:14:45;10.00;99.90
8214;DHT22;4148;47.974;7.824;2023-04-16T13:17:14;10.00;99.90
8214;DHT22;4148;47.974;7.824;2023-04-16T13:19:42;9.90;99.90
8214;DHT22;4148;47.974;7.824;2023-04-16T13:22:11;10.00;99.90
8214;DHT22;4148;47.974;7.824;2023-04-16T13:24:39;9.90;99.90
8214;DHT22;4148;47.974;7.824;2023-04-16T13:27:07;9.90;99.90
8214;DHT22;4148;47.974;7.824;2023-04-16T13:29:35;9.90;99.90
8214;DHT22;4148;47.974;7.824;2023-04-16T13:32:03;9.90;99.90
8214;DHT22;4148;47.974;7.824;2023-04-16T13:34:33;9.90;99.90
8214;DHT22;4148;47.974;7.824;2023-04-16T13:37:01;9.90;99.90
8214;DHT22;4148;47.974;7.824;2023-04-16T13:39:29;9.90;99.90
8214;DHT22;4148;47.974;7.824;2023-04-16T13:41:57;10.00;99.90
8214;DHT22;4148;47.974;7.824;2023-04-16T13:44:24;10.00;99.90
8214;DHT22;4148;47.974;7.824;2023-04-16T13:46:52;10.10;99.90
8214;DHT22;4148;47.974;7.824;2023-04-16T13:49:20;10.20;99.90
8214;DHT22;4148;47.974;7.824;2023-04-16T13:51:50;10.40;99.90
8214;DHT22;4148;47.974;7.824;2023-04-16T13:54:18;10.50;99.90
8214;DHT22;4148;47.974;7.824;2023-04-16T13:56:45;10.50;99.90
8214;DHT22;4148;47.974;7.824;2023-04-16T13:59:13;10.70;99.90
8214;DHT22;4148;47.974;7.824;2023-04-16T14:01:42;10.70;99.90
8214;DHT22;4148;47.974;7.824;2023-04-16T14:04:10;10.90;99.90
8214;DHT22;4148;47.974;7.824;2023-04-16T14:06:37;10.80;99.90
8214;DHT22;4148;47.974;7.824;2023-04-16T14:09:06;10.80;99.90
8214;DHT22;4148;47.974;7.824;2023-04-16T14:11:36;10.70;99.90
8214;DHT22;4148;47.974;7.824;2023-04-16T14:14:04;10.70;99.90
8214;DHT22;4148;47.974;7.824;2023-04-16T14:16:33;10.60;99.90
8214;DHT22;4148;47.974;7.824;2023-04-16T14:19:01;10.70;99.90
8214;DHT22;4148;47.974;7.824;2023-04-16T14:21:29;10.70;99.90
8214;DHT22;4148;47.974;7.824;2023-04-16T14:23:57;10.70;99.90
8214;DHT22;4148;47.974;7.824;2023-04-16T14:26:26;10.60;99.90
8214;DHT22;4148;47.974;7.824;2023-04-16T14:28:54;10.50;99.90
8214;DHT22;4148;47.974;7.824;2023-04-16T14:31:22;10.60;99.90
8214;DHT22;4148;47.974;7.824;2023-04-16T14:33:50;10.70;99.90
8214;DHT22;4148;47.974;7.824;2023-04-16T14:36:18;10.60;99.90
8214;DHT22;4148;47.974;7.824;2023-04-16T14:38:46;10.60;99.90
8214;DHT22;4148;47.974;7.824;2023-04-16T14:41:14;10.60;99.90
8214;DHT22;4148;47.974;7.824;2023-04-16T14:43:43;10.60;99.90
8214;DHT22;4148;47.974;7.824;2023-04-16T14:46:11;10.40;99.90
8214;DHT22;4148;47.974;7.824;2023-04-16T14:48:43;10.30;99.90
8214;DHT22;4148;47.974;7.824;2023-04-16T14:51:11;10.30;99.90
8214;DHT22;4148;47.974;7.824;2023-04-16T14:53:39;10.10;99.90
8214;DHT22;4148;47.974;7.824;2023-04-16T14:56:06;10.20;99.90
8214;DHT22;4148;47.974;7.824;2023-04-16T14:58:34;10.20;99.90
8214;DHT22;4148;47.974;7.824;2023-04-16T15:01:06;10.30;99.90
8214;DHT22;4148;47.974;7.824;2023-04-16T15:03:34;10.20;99.90
8214;DHT22;4148;47.974;7.824;2023-04-16T15:06:02;10.20;99.90
8214;DHT22;4148;47.974;7.824;2023-04-16T15:08:31;10.10;99.90
8214;DHT22;4148;47.974;7.824;2023-04-16T15:10:59;10.10;99.90
8214;DHT22;4148;47.974;7.824;2023-04-16T15:13:27;10.00;99.90
8214;DHT22;4148;47.974;7.824;2023-04-16T15:15:59;10.10;99.90
8214;DHT22;4148;47.974;7.824;2023-04-16T15:18:28;10.10;99.90
8214;DHT22;4148;47.974;7.824;2023-04-16T15:20:56;10.20;99.90
8214;DHT22;4148;47.974;7.824;2023-04-16T15:23:24;10.10;99.90
8214;DHT22;4148;47.974;7.824;2023-04-16T15:25:52;10.10;99.90
8214;DHT22;4148;47.974;7.824;2023-04-16T15:28:20;10.20;99.90
8214;DHT22;4148;47.974;7.824;2023-04-16T15:30:49;10.20;99.90
8214;DHT22;4148;47.974;7.824;2023-04-16T15:33:19;10.20;99.90
8214;DHT22;4148;47.974;7.824;2023-04-16T15:35:49;10.30;99.90
8214;DHT22;4148;47.974;7.824;2023-04-16T15:38:18;10.40;99.90
8214;DHT22;4148;47.974;7.824;2023-04-16T15:40:46;10.40;99.90
8214;DHT22;4148;47.974;7.824;2023-04-16T15:43:14;10.30;99.90
8214;DHT22;4148;47.974;7.824;2023-04-16T15:45:42;10.30;99.90
8214;DHT22;4148;47.974;7.824;2023-04-16T15:48:10;10.30;99.90
8214;DHT22;4148;47.974;7.824;2023-04-16T15:50:38;10.30;99.90
8214;DHT22;4148;47.974;7.824;2023-04-16T15:53:07;10.30;99.90
8214;DHT22;4148;47.974;7.824;2023-04-16T15:55:35;10.30;99.90
8214;DHT22;4148;47.974;7.824;2023-04-16T15:58:03;10.40;99.90
8214;DHT22;4148;47.974;7.824;2023-04-16T16:00:31;10.50;99.90
8214;DHT22;4148;47.974;7.824;2023-04-16T16:02:58;10.50;99.90
8214;DHT22;4148;47.974;7.824;2023-04-16T16:05:26;10.50;99.90
8214;DHT22;4148;47.974;7.824;2023-04-16T16:07:56;10.60;99.90
8214;DHT22;4148;47.974;7.824;2023-04-16T16:10:25;10.60;99.90
8214;DHT22;4148;47.974;7.824;2023-04-16T16:12:53;10.60;99.90
8214;DHT22;4148;47.974;7.824;2023-04-16T16:15:22;10.40;99.90
8214;DHT22;4148;47.974;7.824;2023-04-16T16:17:50;10.40;99.90
8214;DHT22;4148;47.974;7.824;2023-04-16T16:20:19;10.40;99.90
8214;DHT22;4148;47.974;7.824;2023-04-16T16:22:48;10.30;99.90
8214;DHT22;4148;47.974;7.824;2023-04-16T16:25:18;10.30;99.90
8214;DHT22;4148;47.974;7.824;2023-04-16T16:27:48;10.30;99.90